Terminal Aerodrome Forecast
Issued by NWS

Home | Current Version | Previous Version | Text Only | Print | Product List | Glossary Off
Versions: 1 2 3 4 5 6 7 8 9 10 11 12 13 14 15 16 17 18 19 20 21 22 23 24 25 26 27 28 29 30 31 32 33 34 35 36 37 38 39 40 41 42 43 44 45 46 47 48

000
FTUS43 KGRB 211310 AAA
TAFATW
TAF AMD
KATW 211310Z 2113/2212 13005KT 3SM BR BKN003 BKN025
      TEMPO 2114/2115 P6SM NSW BKN025
     FM211500 19010KT P6SM BKN025
     FM211700 23012G21KT P6SM BKN022
     FM220100 23010KT P6SM BKN030=

USA.gov is the U.S. government's official web portal to all federal, state and local government web resources and services.